Time;durP1;ratioP1;P1;durP2;ratioP2;P2;SDS_P1;SDS_P2;PMS_P1;PMS_P2;Temp;Humidity;BMP_temperature;BMP_pressure;BME280_temperature;BME280_humidity;BME280_pressure;Samples;Min_cycle;Max_cycle;Signal;HPM_P1;HPM_P2
2023/12/11 00:01:07;;;;;;;24.23;3.35;;;;;;;9.14;100.00;99747.72;5008813;28;20057;-74
2023/12/11 00:03:33;;;;;;;29.65;2.60;;;;;;;9.07;100.00;99749.38;5014039;28;20721;-73
2023/12/11 00:05:58;;;;;;;33.35;4.00;;;;;;;9.01;100.00;99742.31;5009280;28;20049;-73
2023/12/11 00:08:24;;;;;;;34.17;4.13;;;;;;;9.11;100.00;99739.50;5010346;28;20037;-73
2023/12/11 00:10:49;;;;;;;28.75;3.55;;;;;;;9.06;100.00;99739.22;5009523;28;20034;-74
2023/12/11 00:13:15;;;;;;;25.27;4.38;;;;;;;9.04;100.00;99749.75;5008037;28;20053;-73
2023/12/11 00:15:40;;;;;;;28.40;3.80;;;;;;;9.06;100.00;99742.63;5012261;28;20401;-74
2023/12/11 00:18:06;;;;;;;35.15;4.38;;;;;;;9.20;100.00;99755.78;5017391;28;20420;-74
2023/12/11 00:20:32;;;;;;;40.13;4.72;;;;;;;9.15;100.00;99751.94;5012032;28;20037;-74
2023/12/11 00:22:57;;;;;;;32.97;5.15;;;;;;;9.06;100.00;99752.13;5009409;28;20038;-74
2023/12/11 00:25:23;;;;;;;42.58;4.65;;;;;;;9.14;100.00;99750.31;5016152;28;20092;-73
2023/12/11 00:27:48;;;;;;;31.92;4.32;;;;;;;9.23;100.00;99734.72;5007026;28;20040;-73
2023/12/11 00:30:14;;;;;;;31.65;3.42;;;;;;;9.15;100.00;99739.00;5010321;28;20042;-74
2023/12/11 00:32:40;;;;;;;34.85;4.10;;;;;;;9.11;100.00;99748.06;4992424;28;20038;-73
2023/12/11 00:35:06;;;;;;;27.73;3.60;;;;;;;9.20;100.00;99737.69;5015265;28;20121;-73
2023/12/11 00:37:32;;;;;;;30.40;4.55;;;;;;;9.16;100.00;99739.81;5006341;28;20037;-74
2023/12/11 00:39:57;;;;;;;36.53;4.55;;;;;;;9.07;100.00;99731.28;5014241;28;20045;-74
2023/12/11 00:42:23;;;;;;;32.00;4.05;;;;;;;9.11;100.00;99740.31;5008352;28;20085;-73
2023/12/11 00:44:48;;;;;;;34.20;4.15;;;;;;;9.09;100.00;99738.88;5008560;28;20408;-74
2023/12/11 00:47:14;;;;;;;35.67;4.07;;;;;;;9.01;100.00;99733.75;5010926;28;20025;-73
2023/12/11 00:49:39;;;;;;;25.27;3.92;;;;;;;8.96;100.00;99735.06;5008339;28;20042;-74
2023/12/11 00:52:05;;;;;;;44.20;4.07;;;;;;;8.88;100.00;99731.75;5011271;28;20160;-73
2023/12/11 00:54:30;;;;;;;41.47;4.63;;;;;;;8.92;100.00;99735.59;5004499;28;20025;-74
2023/12/11 00:56:56;;;;;;;33.75;3.65;;;;;;;8.87;100.00;99737.88;5011561;28;20084;-73
2023/12/11 00:59:21;;;;;;;27.40;4.00;;;;;;;8.93;100.00;99734.63;4992070;28;20400;-73
2023/12/11 01:01:48;;;;;;;26.98;4.60;;;;;;;9.08;100.00;99734.66;5014544;28;20041;-74
2023/12/11 01:04:13;;;;;;;30.85;4.28;;;;;;;9.08;100.00;99738.09;5008295;28;20505;-74
2023/12/11 01:06:39;;;;;;;33.85;4.30;;;;;;;9.02;100.00;99743.91;5009595;28;20045;-74
2023/12/11 01:09:04;;;;;;;39.63;3.75;;;;;;;9.10;100.00;99736.13;5006736;28;20038;-74
2023/12/11 01:11:30;;;;;;;28.67;3.25;;;;;;;9.00;100.00;99734.72;4997059;28;20653;-74
2023/12/11 01:13:55;;;;;;;31.80;4.18;;;;;;;8.98;100.00;99721.97;5006490;28;20030;-74
2023/12/11 01:16:21;;;;;;;35.15;5.00;;;;;;;9.03;100.00;99731.81;5011684;28;20727;-74
2023/12/11 01:18:47;;;;;;;31.25;3.53;;;;;;;9.20;100.00;99719.56;5012185;28;20508;-75
2023/12/11 01:21:12;;;;;;;31.75;4.07;;;;;;;9.19;100.00;99723.13;5008344;28;20053;-75
2023/12/11 01:23:38;;;;;;;36.47;4.57;;;;;;;9.07;100.00;99726.13;5006167;28;20037;-74
2023/12/11 01:26:04;;;;;;;32.72;4.03;;;;;;;9.06;100.00;99729.69;5001423;28;20042;-74
2023/12/11 01:28:29;;;;;;;27.35;3.28;;;;;;;9.13;100.00;99735.75;5003533;28;20530;-74
2023/12/11 01:30:55;;;;;;;28.35;3.95;;;;;;;9.18;100.00;99724.91;5004592;28;21122;-74
2023/12/11 01:33:20;;;;;;;33.88;4.93;;;;;;;9.30;100.00;99727.88;5026000;28;20122;-75
2023/12/11 01:35:46;;;;;;;29.63;3.58;;;;;;;9.22;100.00;99728.75;5009558;28;20057;-74
2023/12/11 01:38:11;;;;;;;27.75;3.90;;;;;;;9.15;100.00;99730.41;5004479;28;20095;-74
2023/12/11 01:40:37;;;;;;;32.28;3.83;;;;;;;9.19;100.00;99736.06;5007913;28;20084;-74
2023/12/11 01:43:16;;;;;;;25.73;4.07;;;;;;;9.14;100.00;99723.66;5009479;28;20033;-74
2023/12/11 01:45:42;;;;;;;30.95;4.13;;;;;;;9.18;100.00;99734.47;5003789;28;20600;-75
2023/12/11 01:48:09;;;;;;;25.05;3.78;;;;;;;9.24;100.00;99736.34;5009569;28;20056;-74
2023/12/11 01:50:35;;;;;;;22.30;3.45;;;;;;;9.27;100.00;99739.41;5004576;28;20041;-74
2023/12/11 01:53:01;;;;;;;31.15;3.78;;;;;;;9.25;100.00;99730.19;5004464;28;20037;-74
2023/12/11 01:55:28;;;;;;;30.35;3.65;;;;;;;9.16;100.00;99730.25;5000505;28;20042;-74
2023/12/11 01:57:54;;;;;;;31.13;3.75;;;;;;;9.19;100.00;99728.28;5009189;28;20034;-73
2023/12/11 02:00:19;;;;;;;38.65;4.57;;;;;;;9.06;100.00;99714.19;5008082;28;20053;-74
2023/12/11 02:02:45;;;;;;;30.67;4.05;;;;;;;9.13;100.00;99720.25;5005125;28;20541;-72
2023/12/11 02:05:11;;;;;;;29.25;4.43;;;;;;;9.10;100.00;99719.81;5004292;28;20088;-74
2023/12/11 02:07:43;;;;;;;39.47;4.00;;;;;;;9.07;100.00;99722.72;4991299;28;20084;-74
2023/12/11 02:10:09;;;;;;;45.42;5.47;;;;;;;9.14;100.00;99706.34;5003527;28;20033;-74
2023/12/11 02:12:34;;;;;;;20.92;3.70;;;;;;;9.09;100.00;99716.41;5005680;28;20037;-74
2023/12/11 02:14:59;;;;;;;34.28;4.28;;;;;;;9.18;100.00;99706.00;5002354;28;20029;-74
2023/12/11 02:17:25;;;;;;;38.47;3.55;;;;;;;9.27;100.00;99690.25;5009045;28;20527;-74
2023/12/11 02:19:50;;;;;;;44.85;4.70;;;;;;;9.25;100.00;99709.50;4993473;28;20506;-74
2023/12/11 02:22:16;;;;;;;30.00;3.95;;;;;;;9.33;100.00;99705.06;5013709;28;20504;-74
2023/12/11 02:24:49;;;;;;;23.95;3.60;;;;;;;9.29;100.00;99703.00;5005352;28;20503;-74
2023/12/11 02:27:14;;;;;;;35.00;4.63;;;;;;;9.16;100.00;99714.72;5008884;28;20092;-74
2023/12/11 02:29:40;;;;;;;36.17;5.55;;;;;;;9.23;100.00;99708.88;5008356;28;20042;-74
2023/12/11 02:32:06;;;;;;;30.13;3.25;;;;;;;9.24;100.00;99703.53;5011680;28;20117;-75
2023/12/11 02:34:31;;;;;;;42.20;4.38;;;;;;;9.31;100.00;99701.06;5011423;28;20040;-73
2023/12/11 02:36:56;;;;;;;24.08;3.05;;;;;;;9.23;100.00;99693.34;5014930;28;20037;-75
2023/12/11 02:39:22;;;;;;;33.03;4.30;;;;;;;9.27;100.00;99694.63;5014071;28;20037;-73
2023/12/11 02:41:48;;;;;;;36.72;4.88;;;;;;;9.25;100.00;99684.44;5011101;28;20440;-74
2023/12/11 02:44:13;;;;;;;31.45;4.50;;;;;;;9.25;100.00;99676.69;5008354;28;20069;-74
2023/12/11 02:46:39;;;;;;;27.63;3.42;;;;;;;9.34;100.00;99674.81;5009038;28;20038;-74
2023/12/11 02:49:05;;;;;;;30.25;3.30;;;;;;;9.29;100.00;99675.34;4999941;28;20038;-74
2023/12/11 02:51:30;;;;;;;32.97;4.45;;;;;;;9.15;100.00;99669.19;5008872;28;20152;-74
2023/12/11 02:53:55;;;;;;;28.42;4.85;;;;;;;9.16;100.00;99649.28;5007764;28;20085;-74
2023/12/11 02:56:21;;;;;;;27.00;3.25;;;;;;;9.21;100.00;99656.50;5009837;28;20071;-74
2023/12/11 02:58:46;;;;;;;31.85;3.88;;;;;;;9.17;100.00;99663.81;5013733;28;20038;-73
2023/12/11 03:01:12;;;;;;;43.50;6.35;;;;;;;9.24;100.00;99662.13;5006617;28;20027;-74
2023/12/11 03:03:38;;;;;;;36.20;4.00;;;;;;;9.15;100.00;99640.72;5013049;28;20022;-74
2023/12/11 03:06:04;;;;;;;41.78;4.43;;;;;;;9.19;100.00;99637.78;5008150;28;20053;-75
2023/12/11 03:08:29;;;;;;;37.22;5.32;;;;;;;9.03;100.00;99644.69;5014857;28;20091;-76
2023/12/11 03:10:55;;;;;;;36.22;3.95;;;;;;;9.00;100.00;99636.47;4995841;28;20042;-74
2023/12/11 03:13:20;;;;;;;34.63;4.60;;;;;;;8.93;100.00;99637.19;4997090;28;20057;-74
2023/12/11 03:15:46;;;;;;;24.33;3.10;;;;;;;8.99;100.00;99627.13;5007986;28;20037;-74
2023/12/11 03:18:11;;;;;;;43.75;4.22;;;;;;;8.99;100.00;99625.34;5009469;28;20064;-74
2023/12/11 03:20:37;;;;;;;35.38;3.72;;;;;;;8.92;100.00;99637.34;5017262;28;20033;-74
2023/12/11 03:23:02;;;;;;;29.02;3.95;;;;;;;8.94;100.00;99619.88;5002440;28;20029;-74
2023/12/11 03:25:28;;;;;;;25.42;4.00;;;;;;;8.88;100.00;99626.53;5009283;28;20061;-74
2023/12/11 03:27:53;;;;;;;32.88;4.22;;;;;;;9.04;100.00;99633.38;4997811;28;20029;-73
2023/12/11 03:30:19;;;;;;;28.23;3.60;;;;;;;8.96;100.00;99629.06;5008165;28;20038;-74
2023/12/11 03:32:44;;;;;;;29.73;3.42;;;;;;;8.91;100.00;99617.63;5009867;28;20061;-75
2023/12/11 03:35:10;;;;;;;30.85;4.00;;;;;;;9.04;100.00;99614.47;5010971;28;20095;-73
2023/12/11 03:37:35;;;;;;;31.77;3.20;;;;;;;9.13;100.00;99616.00;5013128;28;20068;-73
2023/12/11 03:40:02;;;;;;;44.15;6.25;;;;;;;9.17;100.00;99606.91;5011080;28;20038;-74
2023/12/11 03:42:27;;;;;;;38.10;4.63;;;;;;;9.22;100.00;99611.56;5018299;28;20103;-73
2023/12/11 03:44:54;;;;;;;31.55;3.40;;;;;;;9.18;100.00;99597.38;5012763;28;20488;-72
2023/12/11 03:47:21;;;;;;;35.45;8.45;;;;;;;9.27;100.00;99584.19;5012197;28;20052;-74
2023/12/11 03:49:46;;;;;;;74.50;17.38;;;;;;;9.28;100.00;99577.22;5013579;28;20109;-73
2023/12/11 03:52:12;;;;;;;58.15;15.88;;;;;;;9.36;100.00;99603.00;5010289;28;20048;-73
2023/12/11 03:54:37;;;;;;;59.60;12.27;;;;;;;9.35;100.00;99604.00;5012511;28;20060;-73
2023/12/11 03:57:03;;;;;;;56.90;15.75;;;;;;;9.28;100.00;99616.03;4996731;28;20662;-74
2023/12/11 03:59:29;;;;;;;70.57;20.10;;;;;;;9.12;100.00;99607.44;5013832;28;20119;-74
2023/12/11 04:01:54;;;;;;;76.05;18.42;;;;;;;9.04;100.00;99612.69;5012807;28;20053;-73
2023/12/11 04:04:20;;;;;;;33.63;5.75;;;;;;;8.89;100.00;99598.91;5018346;28;20044;-75
2023/12/11 04:06:45;;;;;;;45.95;11.85;;;;;;;8.94;100.00;99601.78;5007555;28;20619;-74
2023/12/11 04:09:11;;;;;;;41.30;5.55;;;;;;;8.91;100.00;99592.59;4992690;28;22845;-74
2023/12/11 04:11:36;;;;;;;33.47;6.85;;;;;;;8.86;100.00;99568.25;5011009;28;20034;-73
2023/12/11 04:14:02;;;;;;;36.03;4.53;;;;;;;8.82;100.00;99572.16;4993132;28;20037;-75
2023/12/11 04:16:28;;;;;;;38.58;5.30;;;;;;;8.90;100.00;99578.03;5014847;28;20131;-75
2023/12/11 04:18:53;;;;;;;34.17;5.10;;;;;;;8.81;100.00;99578.28;5010175;28;20030;-74
2023/12/11 04:21:19;;;;;;;27.05;3.83;;;;;;;8.76;100.00;99569.28;5008603;28;20087;-74
2023/12/11 04:23:45;;;;;;;36.55;4.10;;;;;;;8.75;100.00;99572.03;5011126;28;20076;-73
2023/12/11 04:26:10;;;;;;;31.63;4.78;;;;;;;8.79;100.00;99581.03;5009530;28;20042;-74
2023/12/11 04:28:35;;;;;;;29.20;3.50;;;;;;;8.90;100.00;99583.22;5009350;28;20042;-75
2023/12/11 04:31:01;;;;;;;30.70;4.65;;;;;;;8.92;100.00;99572.72;5007017;28;20034;-74
2023/12/11 04:33:26;;;;;;;40.63;5.47;;;;;;;8.76;100.00;99551.19;5011495;28;20041;-75
2023/12/11 04:35:52;;;;;;;25.15;6.57;;;;;;;8.83;100.00;99571.97;5004619;28;20181;-75
2023/12/11 04:38:17;;;;;;;37.00;4.32;;;;;;;8.82;100.00;99577.34;5015462;28;20045;-73
2023/12/11 04:40:43;;;;;;;30.40;4.72;;;;;;;8.69;100.00;99568.38;5008477;28;20436;-73
2023/12/11 04:43:08;;;;;;;37.58;3.72;;;;;;;8.63;100.00;99569.06;5006539;28;20473;-73
2023/12/11 04:45:34;;;;;;;30.05;3.78;;;;;;;8.61;100.00;99578.78;5011014;28;20038;-74
2023/12/11 04:47:59;;;;;;;24.17;2.70;;;;;;;8.72;100.00;99565.44;5009641;28;20038;-74
2023/12/11 04:50:25;;;;;;;31.58;3.33;;;;;;;8.71;100.00;99542.34;5013766;28;20046;-74
2023/12/11 04:52:50;;;;;;;27.42;4.20;;;;;;;8.80;100.00;99564.56;5012215;28;20091;-75
2023/12/11 04:55:16;;;;;;;35.40;4.75;;;;;;;8.70;100.00;99571.75;5011462;28;20041;-73
2023/12/11 04:57:41;;;;;;;28.35;3.13;;;;;;;8.76;100.00;99584.78;5013763;28;20033;-74
2023/12/11 05:00:07;;;;;;;24.02;4.28;;;;;;;8.75;100.00;99569.47;5014343;28;20034;-73
2023/12/11 05:02:33;;;;;;;29.63;4.38;;;;;;;8.72;100.00;99577.53;5010384;28;20042;-73
2023/12/11 05:04:58;;;;;;;30.40;3.00;;;;;;;8.80;100.00;99580.09;5011953;28;20052;-73
2023/12/11 05:07:24;;;;;;;25.83;3.72;;;;;;;8.71;100.00;99581.91;5012369;28;20033;-73
2023/12/11 05:09:49;;;;;;;25.83;4.43;;;;;;;8.69;100.00;99567.56;5024992;28;20029;-74
2023/12/11 05:12:14;;;;;;;26.80;3.10;;;;;;;8.65;100.00;99574.88;5004574;28;20036;-74
2023/12/11 05:14:40;;;;;;;24.48;3.10;;;;;;;8.65;100.00;99556.78;5009861;28;20044;-73
2023/12/11 05:17:06;;;;;;;30.33;5.18;;;;;;;8.65;100.00;99566.31;5007074;28;20065;-73
2023/12/11 05:19:31;;;;;;;22.33;2.63;;;;;;;8.67;100.00;99561.78;5008982;28;20099;-73
2023/12/11 05:21:59;;;;;;;26.92;3.70;;;;;;;8.54;100.00;99550.22;5010888;28;20041;-72
2023/12/11 05:24:25;;;;;;;30.52;3.85;;;;;;;8.55;100.00;99558.78;5010496;28;20030;-73
2023/12/11 05:26:51;;;;;;;22.52;3.03;;;;;;;8.62;100.00;99535.66;5010536;28;20044;-73
2023/12/11 05:29:16;;;;;;;33.72;3.92;;;;;;;8.56;100.00;99537.13;4998044;28;20519;-73
2023/12/11 05:31:42;;;;;;;22.90;2.80;;;;;;;8.51;100.00;99542.00;5008536;28;20041;-73
2023/12/11 05:34:08;;;;;;;28.98;3.05;;;;;;;8.46;100.00;99545.13;5012074;28;20679;-73
2023/12/11 05:36:33;;;;;;;30.45;3.20;;;;;;;8.43;100.00;99555.00;5014302;28;20092;-73
2023/12/11 05:38:59;;;;;;;22.10;3.00;;;;;;;8.51;100.00;99542.00;4991816;28;20037;-72
2023/12/11 05:41:25;;;;;;;22.65;3.33;;;;;;;8.44;100.00;99546.25;4995325;28;20044;-73
2023/12/11 05:43:50;;;;;;;23.52;3.53;;;;;;;8.50;100.00;99545.59;5005729;28;20038;-74
2023/12/11 05:46:16;;;;;;;22.65;3.28;;;;;;;8.56;100.00;99534.56;5000233;28;20042;-73
2023/12/11 05:48:41;;;;;;;20.38;2.00;;;;;;;8.49;100.00;99520.72;5015854;28;20030;-73
2023/12/11 05:51:06;;;;;;;17.63;3.13;;;;;;;8.49;100.00;99536.22;5011592;28;20038;-73
2023/12/11 05:53:32;;;;;;;16.98;3.40;;;;;;;8.48;100.00;99527.69;5007524;28;20034;-73
2023/12/11 05:55:57;;;;;;;24.50;3.58;;;;;;;8.36;100.00;99531.59;5005888;28;20042;-73
2023/12/11 05:58:23;;;;;;;19.80;2.42;;;;;;;8.49;100.00;99525.88;5005054;28;20030;-74
2023/12/11 06:00:48;;;;;;;17.95;2.42;;;;;;;8.54;100.00;99529.56;5002764;28;20527;-73
2023/12/11 06:03:14;;;;;;;21.27;2.70;;;;;;;8.46;100.00;99528.84;5009460;28;20037;-73
2023/12/11 06:05:39;;;;;;;14.15;2.13;;;;;;;8.50;100.00;99536.06;5006351;28;20065;-73
2023/12/11 06:08:05;;;;;;;24.67;2.60;;;;;;;8.50;100.00;99537.84;5009612;28;20547;-73
2023/12/11 06:10:30;;;;;;;18.77;3.53;;;;;;;8.57;100.00;99536.97;5012184;28;20087;-73
2023/12/11 06:12:56;;;;;;;21.65;3.03;;;;;;;8.50;100.00;99536.06;5012696;28;20032;-73
2023/12/11 06:15:22;;;;;;;27.52;3.90;;;;;;;8.50;100.00;99543.00;5015494;28;20138;-72
2023/12/11 06:17:47;;;;;;;28.52;2.97;;;;;;;8.57;100.00;99544.72;5010951;28;20029;-73
2023/12/11 06:20:13;;;;;;;21.70;3.15;;;;;;;8.54;100.00;99537.31;5010033;28;20085;-72
2023/12/11 06:22:38;;;;;;;30.58;4.60;;;;;;;8.49;100.00;99533.63;5009577;28;20031;-73
2023/12/11 06:25:04;;;;;;;28.83;4.63;;;;;;;8.49;100.00;99529.25;5013954;28;20058;-72
2023/12/11 06:27:29;;;;;;;23.13;3.80;;;;;;;8.60;100.00;99546.16;4993854;28;20041;-73
2023/12/11 06:29:55;;;;;;;25.35;3.00;;;;;;;8.58;100.00;99538.56;5012371;28;20053;-73
2023/12/11 06:32:21;;;;;;;30.63;3.63;;;;;;;8.62;100.00;99535.66;5017134;28;20034;-73
2023/12/11 06:34:46;;;;;;;32.00;3.60;;;;;;;8.62;100.00;99528.69;5009979;28;20029;-73
2023/12/11 06:37:12;;;;;;;23.63;4.00;;;;;;;8.72;100.00;99529.25;5012237;28;20079;-73
2023/12/11 06:39:38;;;;;;;26.33;3.97;;;;;;;8.67;100.00;99536.72;5005768;28;20141;-73
2023/12/11 06:42:04;;;;;;;24.48;4.22;;;;;;;8.72;100.00;99542.19;5012982;28;20480;-73
2023/12/11 06:44:29;;;;;;;35.30;5.28;;;;;;;8.74;100.00;99542.03;5013027;28;20164;-73
2023/12/11 06:46:55;;;;;;;31.55;6.82;;;;;;;8.68;100.00;99540.09;5027428;28;20052;-73
2023/12/11 06:49:21;;;;;;;24.23;3.53;;;;;;;8.75;100.00;99534.06;5007255;28;20047;-73
2023/12/11 06:51:46;;;;;;;25.30;3.88;;;;;;;8.82;100.00;99535.97;5018195;28;20412;-73
2023/12/11 06:54:12;;;;;;;17.75;2.55;;;;;;;8.76;100.00;99550.41;5009877;28;20121;-73
2023/12/11 06:56:38;;;;;;;23.50;3.08;;;;;;;8.76;100.00;99533.09;4997419;28;20111;-73
2023/12/11 06:59:03;;;;;;;16.50;2.72;;;;;;;8.89;100.00;99544.59;5011104;28;20499;-74
2023/12/11 07:01:30;;;;;;;23.30;3.63;;;;;;;8.83;100.00;99547.91;5014593;28;20049;-73
2023/12/11 07:03:56;;;;;;;31.85;3.38;;;;;;;8.72;100.00;99518.09;5011740;28;20029;-73
2023/12/11 07:06:22;;;;;;;16.52;2.40;;;;;;;8.98;100.00;99522.88;5010198;28;20069;-73
2023/12/11 07:08:47;;;;;;;26.27;3.92;;;;;;;8.96;100.00;99525.63;5011784;28;20038;-73
2023/12/11 07:11:13;;;;;;;28.70;3.80;;;;;;;8.93;100.00;99526.00;5007393;28;20037;-73
2023/12/11 07:13:41;;;;;;;21.80;3.00;;;;;;;8.84;100.00;99534.00;5017291;28;20037;-73
2023/12/11 07:16:07;;;;;;;23.85;2.30;;;;;;;8.97;100.00;99526.47;4997524;28;20033;-73
2023/12/11 07:18:33;;;;;;;24.90;3.33;;;;;;;8.96;100.00;99525.63;5014468;28;20053;-74
2023/12/11 07:20:58;;;;;;;21.70;2.78;;;;;;;8.99;100.00;99514.16;5014087;28;20046;-73
2023/12/11 07:23:24;;;;;;;21.88;2.85;;;;;;;9.00;100.00;99510.56;5012751;28;20032;-75
2023/12/11 07:25:49;;;;;;;24.98;2.90;;;;;;;8.96;100.00;99527.44;4995056;28;20033;-73
2023/12/11 07:28:15;;;;;;;26.55;3.17;;;;;;;8.98;100.00;99524.66;5019883;28;20503;-72
2023/12/11 07:30:40;;;;;;;23.00;3.17;;;;;;;8.95;100.00;99531.00;5003043;28;20092;-73
2023/12/11 07:33:06;;;;;;;21.23;2.83;;;;;;;9.07;100.00;99526.19;5013058;28;20041;-73
2023/12/11 07:35:31;;;;;;;27.52;2.58;;;;;;;9.06;100.00;99522.81;5007617;28;20434;-73
2023/12/11 07:37:56;;;;;;;23.85;2.88;;;;;;;9.05;100.00;99525.56;5010457;28;20049;-72
2023/12/11 07:40:22;;;;;;;34.63;4.65;;;;;;;9.08;100.00;99531.19;5008916;28;20401;-73
2023/12/11 07:42:48;;;;;;;24.90;2.85;;;;;;;9.16;100.00;99525.13;4993432;28;20026;-74
2023/12/11 07:45:14;;;;;;;21.60;2.70;;;;;;;9.13;100.00;99534.03;5010226;28;20041;-73
2023/12/11 07:47:39;;;;;;;24.45;4.05;;;;;;;9.18;100.00;99537.91;4993891;28;20116;-75
2023/12/11 07:50:05;;;;;;;16.60;2.55;;;;;;;9.13;100.00;99534.03;5009279;28;20038;-73
2023/12/11 07:52:31;;;;;;;23.58;3.70;;;;;;;9.14;100.00;99537.44;5010113;28;20084;-74
2023/12/11 07:54:58;;;;;;;22.80;3.38;;;;;;;9.20;100.00;99539.31;5014945;28;20188;-72
2023/12/11 07:57:28;;;;;;;24.08;3.00;;;;;;;9.26;100.00;99548.16;5009962;28;20096;-73
2023/12/11 07:59:53;;;;;;;29.83;3.58;;;;;;;9.22;100.00;99555.47;5012138;28;20034;-73
2023/12/11 08:02:19;;;;;;;25.98;3.40;;;;;;;9.14;100.00;99558.94;5007850;28;20384;-73
2023/12/11 08:04:44;;;;;;;22.02;3.42;;;;;;;9.18;100.00;99554.22;5012015;28;20044;-73
2023/12/11 08:07:10;;;;;;;22.92;2.85;;;;;;;9.22;100.00;99568.38;5013206;28;20036;-73
2023/12/11 08:09:37;;;;;;;20.80;2.75;;;;;;;9.23;100.00;99558.84;5009661;28;20030;-73
2023/12/11 08:12:03;;;;;;;20.80;3.97;;;;;;;9.12;100.00;99570.44;4992685;28;20037;-78
2023/12/11 08:14:28;;;;;;;31.15;2.83;;;;;;;9.02;100.00;99587.97;4999896;28;20493;-74
2023/12/11 08:16:54;;;;;;;22.45;2.75;;;;;;;9.06;100.00;99586.63;5015052;28;20061;-73
2023/12/11 08:19:19;;;;;;;33.47;2.85;;;;;;;8.92;100.00;99598.56;5009711;28;20049;-73
2023/12/11 08:21:44;;;;;;;19.55;2.80;;;;;;;8.98;100.00;99605.63;5008702;28;20030;-74
2023/12/11 08:24:10;;;;;;;23.10;3.13;;;;;;;8.76;100.00;99602.88;5012493;28;21927;-73
2023/12/11 08:26:36;;;;;;;24.30;2.83;;;;;;;8.84;100.00;99608.97;5015132;28;21257;-73
2023/12/11 08:29:01;;;;;;;23.98;3.05;;;;;;;8.86;100.00;99607.03;5000456;28;20112;-73
2023/12/11 08:31:26;;;;;;;18.33;2.95;;;;;;;8.77;100.00;99622.56;5013491;28;20029;-74
2023/12/11 08:33:52;;;;;;;19.05;3.75;;;;;;;8.76;100.00;99609.84;5010018;28;20030;-72
2023/12/11 08:36:17;;;;;;;26.85;2.70;;;;;;;8.70;100.00;99615.69;5009747;28;20262;-74
2023/12/11 08:38:43;;;;;;;31.50;3.20;;;;;;;8.60;100.00;99626.25;5013522;28;20049;-74
2023/12/11 08:41:08;;;;;;;22.13;2.85;;;;;;;8.48;100.00;99627.63;5000673;28;20046;-74
2023/12/11 08:43:34;;;;;;;28.90;3.67;;;;;;;8.64;100.00;99621.56;5026575;28;20029;-74
2023/12/11 08:45:59;;;;;;;25.85;3.55;;;;;;;8.72;100.00;99634.41;5007464;28;20091;-73
2023/12/11 08:48:25;;;;;;;26.23;3.80;;;;;;;8.61;100.00;99638.22;5013888;28;20026;-74
2023/12/11 08:50:53;;;;;;;31.65;4.40;;;;;;;8.67;100.00;99647.06;5011581;28;22134;-73
2023/12/11 08:53:20;;;;;;;29.60;2.80;;;;;;;8.66;100.00;99648.81;5014785;28;20045;-74
2023/12/11 08:55:46;;;;;;;28.70;2.88;;;;;;;8.72;100.00;99645.56;5011949;28;21432;-73
2023/12/11 08:58:11;;;;;;;28.08;2.92;;;;;;;8.69;100.00;99650.28;5013829;28;20034;-73
2023/12/11 09:00:37;;;;;;;20.77;3.50;;;;;;;8.74;100.00;99663.50;5011291;28;21336;-73
2023/12/11 09:03:02;;;;;;;20.15;3.40;;;;;;;8.74;100.00;99668.66;5016176;28;20031;-75
2023/12/11 09:05:28;;;;;;;22.58;3.15;;;;;;;8.76;100.00;99672.69;5002285;28;20042;-74
2023/12/11 09:07:55;;;;;;;29.83;3.60;;;;;;;8.76;100.00;99672.69;5014655;28;20036;-74
2023/12/11 09:10:21;;;;;;;23.92;2.67;;;;;;;8.66;100.00;99687.59;5007743;28;20110;-73
2023/12/11 09:12:47;;;;;;;19.10;2.78;;;;;;;8.67;100.00;99691.78;4993936;28;20111;-74
2023/12/11 09:15:13;;;;;;;20.33;2.55;;;;;;;8.68;100.00;99701.16;4999121;28;20038;-73
2023/12/11 09:17:38;;;;;;;27.85;2.97;;;;;;;8.65;100.00;99700.69;5009095;28;20045;-74
2023/12/11 09:20:06;;;;;;;20.70;2.67;;;;;;;8.63;100.00;99702.66;5013669;28;20038;-74
2023/12/11 09:22:31;;;;;;;24.98;5.28;;;;;;;8.65;100.00;99703.28;5009517;28;20034;-74
2023/12/11 09:24:57;;;;;;;32.33;3.47;;;;;;;8.81;100.00;99717.88;5009343;28;20121;-74
2023/12/11 09:27:22;;;;;;;26.85;3.35;;;;;;;8.73;100.00;99724.69;5006432;28;20420;-75
2023/12/11 09:29:48;;;;;;;32.92;5.10;;;;;;;8.90;100.00;99727.19;5007091;28;20038;-74
2023/12/11 09:32:15;;;;;;;29.88;4.00;;;;;;;9.03;100.00;99735.19;5009240;28;20729;-75
2023/12/11 09:34:41;;;;;;;27.88;3.45;;;;;;;8.95;100.00;99741.22;5011361;28;20033;-76
2023/12/11 09:37:06;;;;;;;18.95;3.58;;;;;;;8.79;100.00;99736.13;5015982;28;20035;-74
2023/12/11 09:39:32;;;;;;;29.00;3.50;;;;;;;8.94;100.00;99747.34;5009520;28;20057;-74
2023/12/11 09:41:58;;;;;;;24.50;3.97;;;;;;;8.90;100.00;99740.91;4997194;28;20049;-74
2023/12/11 09:44:26;;;;;;;22.52;3.70;;;;;;;8.93;100.00;99740.59;5009823;28;20841;-74
2023/12/11 09:47:10;;;;;;;22.60;3.67;;;;;;;8.88;100.00;99745.47;5023131;28;20083;-74
2023/12/11 09:49:36;;;;;;;23.50;3.50;;;;;;;8.88;100.00;99755.00;5011878;28;20620;-74
2023/12/11 09:52:02;;;;;;;37.97;4.53;;;;;;;8.91;100.00;99749.47;5011451;28;20077;-73
2023/12/11 09:54:27;;;;;;;24.65;3.38;;;;;;;8.96;100.00;99755.75;5011849;28;20385;-74
2023/12/11 09:56:53;;;;;;;28.90;3.35;;;;;;;8.87;100.00;99751.63;5001946;28;20076;-74
2023/12/11 09:59:19;;;;;;;25.88;3.38;;;;;;;9.00;100.00;99766.56;4991367;28;20477;-74
2023/12/11 10:01:47;;;;;;;20.15;2.67;;;;;;;9.07;100.00;99770.06;5011809;28;20037;-73
2023/12/11 10:04:13;;;;;;;33.65;3.22;;;;;;;9.12;100.00;99775.53;5016510;28;20027;-73
2023/12/11 10:06:39;;;;;;;25.00;2.55;;;;;;;9.10;100.00;99774.91;4985291;28;20045;-74
2023/12/11 10:09:05;;;;;;;23.70;3.53;;;;;;;9.11;100.00;99783.47;5016518;28;20030;-74
2023/12/11 10:11:31;;;;;;;26.55;4.18;;;;;;;9.18;100.00;99792.16;5013883;28;20060;-74
2023/12/11 10:14:10;;;;;;;25.33;3.33;;;;;;;9.20;100.00;99790.22;5014326;28;20052;-75
2023/12/11 10:16:36;;;;;;;25.75;3.83;;;;;;;9.16;100.00;99800.09;5007237;28;20030;-73
2023/12/11 10:19:02;;;;;;;19.08;3.55;;;;;;;9.26;100.00;99801.66;5013918;28;20044;-75
2023/12/11 10:21:37;;;;;;;24.45;2.83;;;;;;;9.34;100.00;99804.19;4990480;28;20124;-73
2023/12/11 10:24:10;;;;;;;23.60;4.07;;;;;;;9.30;100.00;99805.50;5011062;28;20025;-74
2023/12/11 10:26:38;;;;;;;18.45;3.20;;;;;;;9.35;100.00;99808.38;5008177;28;20056;-74
2023/12/11 10:29:21;;;;;;;32.80;3.42;;;;;;;9.28;100.00;99812.63;5006485;28;20034;-73
2023/12/11 10:31:48;;;;;;;24.70;3.65;;;;;;;9.29;100.00;99817.63;5011274;28;20029;-73
2023/12/11 10:34:13;;;;;;;19.35;3.00;;;;;;;9.30;100.00;99827.00;5007050;28;20026;-74
2023/12/11 10:36:50;;;;;;;14.32;2.65;;;;;;;9.33;100.00;99825.88;5014309;28;20042;-74
2023/12/11 10:39:16;;;;;;;27.00;3.30;;;;;;;9.29;100.00;99832.38;5011353;28;20132;-73
2023/12/11 10:41:44;;;;;;;26.98;3.88;;;;;;;9.37;100.00;99829.72;5011858;28;20038;-74
2023/12/11 10:44:22;;;;;;;14.43;2.22;;;;;;;9.32;100.00;99838.00;5011042;28;20079;-74
2023/12/11 10:46:49;;;;;;;16.48;2.20;;;;;;;9.37;100.00;99847.81;5010615;28;20057;-77
2023/12/11 10:49:15;;;;;;;19.77;2.85;;;;;;;9.42;100.00;99842.13;4989207;28;20054;-76
2023/12/11 10:51:40;;;;;;;24.85;3.08;;;;;;;9.51;100.00;99828.16;5007145;28;20044;-76
2023/12/11 10:54:06;;;;;;;16.40;2.90;;;;;;;9.53;100.00;99845.16;5010017;28;20110;-76
2023/12/11 10:56:32;;;;;;;16.10;2.58;;;;;;;9.66;100.00;99859.28;5011739;28;20038;-75
2023/12/11 10:58:58;;;;;;;14.70;2.47;;;;;;;9.57;100.00;99852.53;5014973;28;20034;-76
2023/12/11 11:01:24;;;;;;;20.65;2.97;;;;;;;9.61;100.00;99846.06;5011507;28;20536;-74
2023/12/11 11:03:49;;;;;;;22.08;4.55;;;;;;;9.60;100.00;99854.81;5014663;28;20053;-74
2023/12/11 11:06:17;;;;;;;18.42;2.35;;;;;;;9.60;100.00;99850.41;5010045;28;20678;-76
2023/12/11 11:09:00;;;;;;;17.52;2.53;;;;;;;9.66;100.00;99846.34;5024861;28;20084;-74
2023/12/11 11:11:29;;;;;;;15.63;2.50;;;;;;;9.63;100.00;99851.88;5011182;28;20044;-74
2023/12/11 11:14:26;;;;;;;17.27;2.72;;;;;;;9.71;100.00;99857.00;5011669;28;20484;-75
2023/12/11 11:16:52;;;;;;;15.50;2.40;;;;;;;9.62;100.00;99855.44;5014735;28;21223;-73
2023/12/11 11:19:18;;;;;;;17.27;2.20;;;;;;;9.67;100.00;99861.69;5012837;28;20038;-74